createdAt,value
2016-06-22T00:00:29.358Z,969.91
2016-06-22T00:01:29.373Z,969.9
2016-06-22T00:02:29.379Z,969.92
2016-06-22T00:03:29.391Z,969.92
2016-06-22T00:04:29.399Z,969.88
2016-06-22T00:05:29.410Z,969.92
2016-06-22T00:06:29.421Z,969.9
2016-06-22T00:07:29.428Z,969.89
2016-06-22T00:08:29.444Z,969.88
2016-06-22T00:09:29.456Z,969.89
2016-06-22T00:10:29.463Z,969.87
2016-06-22T00:11:29.472Z,969.89
2016-06-22T00:12:29.477Z,969.89
2016-06-22T00:13:29.497Z,969.9
2016-06-22T00:14:29.503Z,969.88
2016-06-22T00:15:29.514Z,969.89
2016-06-22T00:16:29.526Z,969.88
2016-06-22T00:17:29.533Z,969.87
2016-06-22T00:18:29.546Z,969.9
2016-06-22T00:19:29.555Z,969.91
2016-06-22T00:20:29.564Z,969.88
2016-06-22T00:21:29.581Z,969.88
2016-06-22T00:22:29.592Z,969.92
2016-06-22T00:23:29.603Z,969.9
2016-06-22T00:24:29.615Z,969.91
2016-06-22T00:25:29.621Z,969.91
2016-06-22T00:26:29.631Z,969.91
2016-06-22T00:27:29.657Z,969.89
2016-06-22T00:28:29.649Z,969.9
2016-06-22T00:29:29.661Z,969.89
2016-06-22T00:30:29.671Z,969.9
2016-06-22T00:31:29.677Z,969.88
2016-06-22T00:32:29.692Z,969.84
2016-06-22T00:33:29.714Z,969.86
2016-06-22T00:34:29.711Z,969.88
2016-06-22T00:35:29.747Z,969.89
2016-06-22T00:36:29.738Z,969.85
2016-06-22T00:37:29.744Z,969.85
2016-06-22T00:38:29.754Z,969.85
2016-06-22T00:39:29.767Z,969.86
2016-06-22T00:40:29.773Z,969.85
2016-06-22T00:41:29.787Z,969.79
2016-06-22T00:42:29.798Z,969.87
2016-06-22T00:43:29.807Z,969.87
2016-06-22T00:44:29.813Z,969.82
2016-06-22T00:45:29.826Z,969.85
2016-06-22T00:46:29.840Z,969.86
2016-06-22T00:47:29.846Z,969.85
2016-06-22T00:48:29.865Z,969.85
2016-06-22T00:49:29.871Z,969.84
2016-06-22T00:50:29.877Z,969.83
2016-06-22T00:51:29.890Z,969.8
2016-06-22T00:52:29.899Z,969.81
2016-06-22T00:53:29.909Z,969.83
2016-06-22T00:54:29.920Z,969.86
2016-06-22T00:55:29.933Z,969.83
2016-06-22T00:56:29.943Z,969.8
2016-06-22T00:57:29.956Z,969.8
2016-06-22T00:58:29.963Z,969.82
2016-06-22T00:59:29.977Z,969.82
2016-06-22T01:00:29.984Z,969.8
2016-06-22T01:01:29.992Z,969.85
2016-06-22T01:02:30.005Z,969.87
2016-06-22T01:03:30.018Z,969.83
2016-06-22T01:04:30.026Z,969.89
2016-06-22T01:05:30.037Z,969.81
2016-06-22T01:06:30.042Z,969.86
2016-06-22T01:07:30.060Z,969.86
2016-06-22T01:08:30.070Z,969.86
2016-06-22T01:09:30.082Z,969.85
2016-06-22T01:10:30.087Z,969.89
2016-06-22T01:11:30.098Z,969.86
2016-06-22T01:12:30.110Z,969.87
2016-06-22T01:13:30.117Z,969.88
2016-06-22T01:14:30.127Z,969.85
2016-06-22T01:15:30.139Z,969.87
2016-06-22T01:16:30.148Z,969.83
2016-06-22T01:17:30.162Z,969.84
2016-06-22T01:18:30.170Z,969.84
2016-06-22T01:19:30.176Z,969.84
2016-06-22T01:20:30.188Z,969.81
2016-06-22T01:21:30.201Z,969.8
2016-06-22T01:22:30.209Z,969.8
2016-06-22T01:23:30.226Z,969.79
2016-06-22T01:24:30.232Z,969.75
2016-06-22T01:25:30.242Z,969.73
2016-06-22T01:26:30.257Z,969.72
2016-06-22T01:27:30.267Z,969.71
2016-06-22T01:28:30.274Z,969.72
2016-06-22T01:29:30.289Z,969.71
2016-06-22T01:30:30.298Z,969.65
2016-06-22T01:31:30.307Z,969.68
2016-06-22T01:32:30.328Z,969.68
2016-06-22T01:33:30.328Z,969.7
2016-06-22T01:34:30.344Z,969.7
2016-06-22T01:35:30.353Z,969.67
2016-06-22T01:36:30.361Z,969.69
2016-06-22T01:37:30.367Z,969.75
2016-06-22T01:38:30.378Z,969.72
2016-06-22T01:39:30.389Z,969.71
2016-06-22T01:40:30.398Z,969.71
2016-06-22T01:41:30.408Z,969.66
2016-06-22T01:42:30.422Z,969.67
2016-06-22T01:43:30.436Z,969.68
2016-06-22T01:44:30.446Z,969.69
2016-06-22T01:45:30.454Z,969.66
2016-06-22T01:46:30.463Z,969.71
2016-06-22T01:47:30.477Z,969.65
2016-06-22T01:48:30.485Z,969.67
2016-06-22T01:49:30.487Z,969.65
2016-06-22T01:50:30.509Z,969.67
2016-06-22T01:51:30.512Z,969.64
2016-06-22T01:52:30.521Z,969.66
2016-06-22T01:53:30.541Z,969.66
2016-06-22T01:54:30.566Z,969.67
2016-06-22T01:55:30.557Z,969.67
2016-06-22T01:56:30.568Z,969.63
2016-06-22T01:57:30.578Z,969.65
2016-06-22T01:58:30.590Z,969.65
2016-06-22T01:59:30.598Z,969.65
2016-06-22T02:00:30.611Z,969.66
2016-06-22T02:01:30.621Z,969.68
2016-06-22T02:02:30.630Z,969.72
2016-06-22T02:03:30.638Z,969.71
2016-06-22T02:04:30.648Z,969.71
2016-06-22T02:05:30.657Z,969.76
2016-06-22T02:06:30.671Z,969.78
2016-06-22T02:07:30.678Z,969.78
2016-06-22T02:08:30.692Z,969.72
2016-06-22T02:09:30.706Z,969.72
2016-06-22T02:10:30.711Z,969.72
2016-06-22T02:11:30.723Z,969.69
2016-06-22T02:12:30.734Z,969.7
2016-06-22T02:13:30.742Z,969.72
2016-06-22T02:14:30.750Z,969.73
2016-06-22T02:15:30.767Z,969.72
2016-06-22T02:16:30.773Z,969.71
2016-06-22T02:17:30.782Z,969.76
2016-06-22T02:18:30.796Z,969.74
2016-06-22T02:19:30.809Z,969.69
2016-06-22T02:20:30.820Z,969.73
2016-06-22T02:21:30.829Z,969.73
2016-06-22T02:22:30.835Z,969.71
2016-06-22T02:23:30.843Z,969.72
2016-06-22T02:24:30.862Z,969.76
2016-06-22T02:25:30.868Z,969.75
2016-06-22T02:26:30.877Z,969.8
2016-06-22T02:27:30.890Z,969.8
2016-06-22T02:28:30.898Z,969.83
2016-06-22T02:29:30.908Z,969.8
2016-06-22T02:30:30.943Z,969.86
2016-06-22T02:31:30.931Z,969.9
2016-06-22T02:32:30.938Z,969.87
2016-06-22T02:33:30.955Z,969.93
2016-06-22T02:34:30.960Z,969.88
2016-06-22T02:35:30.973Z,969.92
2016-06-22T02:36:30.990Z,969.92
2016-06-22T02:37:30.991Z,969.96
2016-06-22T02:38:31.001Z,969.97
2016-06-22T02:39:31.015Z,969.96
2016-06-22T02:40:31.023Z,969.91
2016-06-22T02:41:31.036Z,969.94
2016-06-22T02:42:31.045Z,969.96
2016-06-22T02:43:31.054Z,969.96
2016-06-22T02:44:31.067Z,969.95
2016-06-22T02:45:31.087Z,969.93
2016-06-22T02:46:31.086Z,969.94
2016-06-22T02:47:31.099Z,969.95
2016-06-22T02:48:31.109Z,969.96
2016-06-22T02:49:31.116Z,969.96
2016-06-22T02:50:31.130Z,969.97
2016-06-22T02:51:31.142Z,969.95
2016-06-22T02:52:31.145Z,969.92
2016-06-22T02:53:31.158Z,969.96
2016-06-22T02:54:31.165Z,969.95
2016-06-22T02:55:31.179Z,969.94
2016-06-22T02:56:31.190Z,969.99
2016-06-22T02:57:31.196Z,969.97
2016-06-22T02:58:31.211Z,970
2016-06-22T02:59:31.220Z,969.99
2016-06-22T03:00:31.231Z,969.96
2016-06-22T03:01:31.237Z,969.94
2016-06-22T03:02:31.250Z,969.95
2016-06-22T03:03:31.264Z,969.96
2016-06-22T03:04:31.272Z,969.94
2016-06-22T03:05:31.288Z,969.96
2016-06-22T03:06:31.292Z,969.94
2016-06-22T03:07:31.303Z,969.99
2016-06-22T03:08:31.318Z,970.04
2016-06-22T03:09:31.329Z,970.03
2016-06-22T03:10:31.331Z,970.01
2016-06-22T03:11:31.342Z,970.02
2016-06-22T03:12:31.358Z,970.03
2016-06-22T03:13:31.365Z,970.03
2016-06-22T03:14:31.377Z,970.04
2016-06-22T03:15:31.388Z,970.08
2016-06-22T03:16:31.391Z,970.12
2016-06-22T03:17:31.406Z,970.11
2016-06-22T03:18:31.415Z,970.16
2016-06-22T03:19:31.425Z,970.17
2016-06-22T03:20:31.436Z,970.15
2016-06-22T03:21:31.450Z,970.14
2016-06-22T03:22:31.459Z,970.18
2016-06-22T03:23:31.468Z,970.19
2016-06-22T03:24:31.478Z,970.2
2016-06-22T03:25:31.493Z,970.19
2016-06-22T03:26:31.501Z,970.17
2016-06-22T03:27:31.515Z,970.18
2016-06-22T03:28:31.520Z,970.18
2016-06-22T03:29:31.531Z,970.17
2016-06-22T03:30:31.545Z,970.17
2016-06-22T03:31:31.556Z,970.13
2016-06-22T03:32:31.559Z,970.16
2016-06-22T03:33:31.576Z,970.13
2016-06-22T03:34:31.586Z,970.16
2016-06-22T03:35:31.593Z,970.17
2016-06-22T03:36:31.603Z,970.18
2016-06-22T03:37:31.611Z,970.16
2016-06-22T03:38:31.622Z,970.22
2016-06-22T03:39:31.635Z,970.21
2016-06-22T03:40:31.643Z,970.22
2016-06-22T03:41:31.656Z,970.22
2016-06-22T03:42:31.667Z,970.25
2016-06-22T03:43:31.675Z,970.22
2016-06-22T03:44:31.687Z,970.24
2016-06-22T03:45:31.697Z,970.23
2016-06-22T03:46:31.710Z,970.22
2016-06-22T03:47:31.722Z,970.21
2016-06-22T03:48:31.729Z,970.2
2016-06-22T03:49:31.741Z,970.2
2016-06-22T03:50:31.751Z,970.24
2016-06-22T03:51:31.768Z,970.23
2016-06-22T03:52:31.768Z,970.21
2016-06-22T03:53:31.782Z,970.22
2016-06-22T03:54:31.793Z,970.22
2016-06-22T03:55:31.807Z,970.22
2016-06-22T03:56:31.817Z,970.21
2016-06-22T03:57:31.825Z,970.23
2016-06-22T03:58:31.863Z,970.27
2016-06-22T03:59:31.846Z,970.25
2016-06-22T04:00:31.858Z,970.29
2016-06-22T04:01:31.869Z,970.33
2016-06-22T04:02:31.871Z,970.31
2016-06-22T04:03:31.891Z,970.29
2016-06-22T04:04:31.914Z,970.3
2016-06-22T04:05:31.902Z,970.33
2016-06-22T04:06:31.918Z,970.31
2016-06-22T04:07:31.929Z,970.32
2016-06-22T04:08:31.927Z,970.39
2016-06-22T04:09:31.946Z,970.36
2016-06-22T04:10:31.958Z,970.38
2016-06-22T04:11:31.967Z,970.41
2016-06-22T04:12:31.975Z,970.38
2016-06-22T04:13:31.990Z,970.38
2016-06-22T04:14:31.998Z,970.37
2016-06-22T04:15:32.008Z,970.41
2016-06-22T04:16:32.020Z,970.35
2016-06-22T04:17:32.029Z,970.4
2016-06-22T04:18:32.038Z,970.39
2016-06-22T04:19:32.047Z,970.37
2016-06-22T04:20:32.063Z,970.39
2016-06-22T04:21:32.067Z,970.36
2016-06-22T04:22:32.083Z,970.36
2016-06-22T04:23:32.099Z,970.34
2016-06-22T04:24:32.098Z,970.34
2016-06-22T04:25:32.111Z,970.37
2016-06-22T04:26:32.122Z,970.33
2016-06-22T04:27:32.130Z,970.39
2016-06-22T04:28:32.145Z,970.38
2016-06-22T04:29:32.154Z,970.37
2016-06-22T04:30:32.169Z,970.38
2016-06-22T04:31:32.173Z,970.39
2016-06-22T04:32:32.186Z,970.38
2016-06-22T04:33:32.196Z,970.36
2016-06-22T04:34:32.201Z,970.35
2016-06-22T04:35:32.216Z,970.39
2016-06-22T04:36:32.225Z,970.41
2016-06-22T04:37:32.234Z,970.38
2016-06-22T04:38:32.245Z,970.41
2016-06-22T04:39:32.258Z,970.4
2016-06-22T04:40:32.270Z,970.39
2016-06-22T04:41:32.289Z,970.39
2016-06-22T04:42:32.296Z,970.41
2016-06-22T04:43:32.300Z,970.38
2016-06-22T04:44:32.306Z,970.36
2016-06-22T04:45:32.318Z,970.37
2016-06-22T04:46:32.330Z,970.39
2016-06-22T04:47:32.338Z,970.4
2016-06-22T04:48:32.349Z,970.41
2016-06-22T04:49:32.358Z,970.42
2016-06-22T04:50:32.375Z,970.46
2016-06-22T04:51:32.381Z,970.48
2016-06-22T04:52:32.390Z,970.47
2016-06-22T04:53:32.401Z,970.45
2016-06-22T04:54:32.414Z,970.52
2016-06-22T04:55:32.423Z,970.52
2016-06-22T04:56:32.435Z,970.53
2016-06-22T04:57:32.449Z,970.52
2016-06-22T04:58:32.454Z,970.49
2016-06-22T04:59:32.462Z,970.5
2016-06-22T05:00:32.475Z,970.47
2016-06-22T05:01:32.483Z,970.49
2016-06-22T05:02:32.492Z,970.48
2016-06-22T05:03:32.504Z,970.45
2016-06-22T05:04:32.524Z,970.45
2016-06-22T05:05:32.528Z,970.44
2016-06-22T05:06:32.539Z,970.46
2016-06-22T05:07:32.546Z,970.47
2016-06-22T05:08:32.555Z,970.44
2016-06-22T05:09:32.571Z,970.45
2016-06-22T05:10:32.583Z,970.45
2016-06-22T05:11:32.596Z,970.46
2016-06-22T05:12:32.611Z,970.45
2016-06-22T05:13:32.620Z,970.42
2016-06-22T05:14:32.617Z,970.45
2016-06-22T05:15:32.628Z,970.44
2016-06-22T05:16:32.642Z,970.45
2016-06-22T05:17:32.649Z,970.45
2016-06-22T05:18:32.663Z,970.48
2016-06-22T05:19:32.679Z,970.44
2016-06-22T05:20:32.687Z,970.47
2016-06-22T05:21:32.705Z,970.43
2016-06-22T05:22:32.703Z,970.49
2016-06-22T05:23:32.713Z,970.43
2016-06-22T05:24:32.725Z,970.49
2016-06-22T05:25:32.735Z,970.51
2016-06-22T05:26:32.745Z,970.49
2016-06-22T05:27:32.754Z,970.5
2016-06-22T05:28:32.765Z,970.54
2016-06-22T05:29:32.778Z,970.54
2016-06-22T05:30:32.789Z,970.52
2016-06-22T05:31:32.804Z,970.51
2016-06-22T05:32:32.809Z,970.55
2016-06-22T05:33:32.846Z,970.55
2016-06-22T05:34:32.826Z,970.55
2016-06-22T05:35:32.842Z,970.57
2016-06-22T05:36:32.849Z,970.56
2016-06-22T05:37:32.859Z,970.61
2016-06-22T05:38:32.874Z,970.57
2016-06-22T05:39:32.879Z,970.54
2016-06-22T05:40:32.895Z,970.56
2016-06-22T05:41:32.903Z,970.55
2016-06-22T05:42:32.912Z,970.59
2016-06-22T05:43:32.932Z,970.58
2016-06-22T05:44:32.968Z,970.6
2016-06-22T05:45:32.953Z,970.58
2016-06-22T05:46:32.958Z,970.57
2016-06-22T05:47:32.964Z,970.53
2016-06-22T05:48:32.979Z,970.54
2016-06-22T05:49:32.990Z,970.54
2016-06-22T05:50:32.999Z,970.57
2016-06-22T05:51:33.007Z,970.57
2016-06-22T05:52:33.023Z,970.56
2016-06-22T05:53:33.028Z,970.56
2016-06-22T05:54:33.052Z,970.53
2016-06-22T05:55:33.047Z,970.6
2016-06-22T05:56:33.063Z,970.59
2016-06-22T05:57:33.077Z,970.62
2016-06-22T05:58:33.080Z,970.58
2016-06-22T05:59:33.091Z,970.59
2016-06-22T06:00:33.099Z,970.6
2016-06-22T06:01:33.118Z,970.59
2016-06-22T06:02:33.124Z,970.61
2016-06-22T06:03:33.135Z,970.61
2016-06-22T06:04:33.146Z,970.62
2016-06-22T06:05:33.156Z,970.6
2016-06-22T06:06:33.161Z,970.63
2016-06-22T06:07:33.182Z,970.63
2016-06-22T06:08:33.187Z,970.66
2016-06-22T06:09:33.199Z,970.65
2016-06-22T06:10:33.212Z,970.66
2016-06-22T06:11:33.218Z,970.63
2016-06-22T06:12:33.227Z,970.65
2016-06-22T06:13:33.241Z,970.7
2016-06-22T06:14:33.247Z,970.65
2016-06-22T06:15:33.263Z,970.68
2016-06-22T06:16:33.274Z,970.68
2016-06-22T06:17:33.284Z,970.66
2016-06-22T06:18:33.297Z,970.66
2016-06-22T06:19:33.307Z,970.6
2016-06-22T06:20:33.313Z,970.59
2016-06-22T06:21:33.326Z,970.65
2016-06-22T06:22:33.335Z,970.63
2016-06-22T06:23:33.343Z,970.65
2016-06-22T06:24:33.365Z,970.65
2016-06-22T06:25:33.370Z,970.66
2016-06-22T06:26:33.375Z,970.65
2016-06-22T06:27:33.387Z,970.61
2016-06-22T06:28:33.401Z,970.62
2016-06-22T06:29:33.414Z,970.6
2016-06-22T06:30:33.437Z,970.66
2016-06-22T06:31:33.428Z,970.63
2016-06-22T06:32:33.447Z,970.62
2016-06-22T06:33:33.457Z,970.65
2016-06-22T06:34:33.463Z,970.59
2016-06-22T06:35:33.472Z,970.61
2016-06-22T06:36:33.488Z,970.62
2016-06-22T06:37:33.494Z,970.64
2016-06-22T06:38:33.502Z,970.62
2016-06-22T06:39:33.508Z,970.65
2016-06-22T06:40:33.529Z,970.63
2016-06-22T06:41:33.534Z,970.63
2016-06-22T06:42:33.542Z,970.63
2016-06-22T06:43:33.555Z,970.62
2016-06-22T06:44:33.568Z,970.61
2016-06-22T06:45:33.573Z,970.62
2016-06-22T06:46:33.591Z,970.65
2016-06-22T06:47:33.596Z,970.64
2016-06-22T06:48:33.610Z,970.62
2016-06-22T06:49:33.621Z,970.62
2016-06-22T06:50:33.626Z,970.59
2016-06-22T06:51:33.642Z,970.62
2016-06-22T06:52:33.648Z,970.57
2016-06-22T06:53:33.663Z,970.64
2016-06-22T06:54:33.669Z,970.57
2016-06-22T06:55:33.690Z,970.59
2016-06-22T06:56:33.688Z,970.6
2016-06-22T06:57:33.703Z,970.56
2016-06-22T06:58:33.711Z,970.59
2016-06-22T06:59:33.725Z,970.56
2016-06-22T07:00:33.734Z,970.63
2016-06-22T07:01:33.742Z,970.57
2016-06-22T07:02:33.758Z,970.56
2016-06-22T07:03:33.769Z,970.54
2016-06-22T07:04:33.773Z,970.51
2016-06-22T07:05:33.787Z,970.51
2016-06-22T07:06:33.797Z,970.54
2016-06-22T07:07:33.805Z,970.57
2016-06-22T07:08:33.815Z,970.54
2016-06-22T07:09:33.828Z,970.53
2016-06-22T07:10:33.845Z,970.54
2016-06-22T07:11:33.848Z,970.53
2016-06-22T07:12:33.857Z,970.54
2016-06-22T07:13:33.872Z,970.53
2016-06-22T07:14:33.877Z,970.51
2016-06-22T07:15:33.889Z,970.51
2016-06-22T07:16:33.899Z,970.49
2016-06-22T07:17:33.913Z,970.53
2016-06-22T07:18:33.918Z,970.52
2016-06-22T07:19:33.935Z,970.53
2016-06-22T07:20:33.945Z,970.53
2016-06-22T07:21:33.954Z,970.55
2016-06-22T07:22:33.965Z,970.54
2016-06-22T07:23:33.978Z,970.52
2016-06-22T07:24:33.990Z,970.5
2016-06-22T07:25:34.294Z,970.52
2016-06-22T07:26:34.007Z,970.5
2016-06-22T07:27:34.070Z,970.5
2016-06-22T07:28:34.026Z,970.53
2016-06-22T07:29:34.039Z,970.49
2016-06-22T07:30:34.074Z,970.46
2016-06-22T07:31:34.061Z,970.47
2016-06-22T07:32:34.069Z,970.5
2016-06-22T07:33:34.103Z,970.5
2016-06-22T07:34:34.209Z,970.46
2016-06-22T07:35:34.148Z,970.46
2016-06-22T07:36:34.108Z,970.47
2016-06-22T07:37:34.122Z,970.45
2016-06-22T07:38:34.134Z,970.42
2016-06-22T07:39:34.144Z,970.43
2016-06-22T07:40:34.171Z,970.39
2016-06-22T07:41:34.170Z,970.33
2016-06-22T07:42:34.178Z,970.39
2016-06-22T07:43:34.184Z,970.37
2016-06-22T07:44:34.205Z,970.38
2016-06-22T07:45:34.340Z,970.4
2016-06-22T07:46:34.219Z,970.38
2016-06-22T07:47:34.234Z,970.36
2016-06-22T07:48:34.239Z,970.4
2016-06-22T07:49:34.249Z,970.36
2016-06-22T07:50:34.260Z,970.37
2016-06-22T07:51:34.269Z,970.37
2016-06-22T07:52:34.287Z,970.34
2016-06-22T07:53:34.290Z,970.31
2016-06-22T07:54:34.298Z,970.35
2016-06-22T07:55:34.316Z,970.33
2016-06-22T07:56:34.322Z,970.36
2016-06-22T07:57:34.334Z,970.32
2016-06-22T07:58:34.347Z,970.32
2016-06-22T07:59:34.352Z,970.33
2016-06-22T08:00:34.363Z,970.3
2016-06-22T08:01:34.372Z,970.3
2016-06-22T08:02:34.393Z,970.34
2016-06-22T08:03:34.394Z,970.27
2016-06-22T08:04:34.407Z,970.27
2016-06-22T08:05:34.412Z,970.29
2016-06-22T08:06:34.426Z,970.33
2016-06-22T08:07:34.436Z,970.34
2016-06-22T08:08:34.454Z,970.36
2016-06-22T08:09:34.461Z,970.34
2016-06-22T08:10:34.469Z,970.35
2016-06-22T08:11:34.488Z,970.35
2016-06-22T08:12:34.487Z,970.37
2016-06-22T08:13:34.502Z,970.4
2016-06-22T08:14:34.513Z,970.38
2016-06-22T08:15:34.515Z,970.37
2016-06-22T08:16:34.533Z,970.38
2016-06-22T08:17:34.541Z,970.37
2016-06-22T08:18:34.544Z,970.41
2016-06-22T08:19:34.569Z,970.44
2016-06-22T08:20:34.574Z,970.4
2016-06-22T08:21:34.583Z,970.36
2016-06-22T08:22:34.591Z,970.41
2016-06-22T08:23:34.608Z,970.43
2016-06-22T08:24:34.613Z,970.41
2016-06-22T08:25:34.624Z,970.37
2016-06-22T08:26:34.630Z,970.38
2016-06-22T08:27:34.645Z,970.34
2016-06-22T08:28:34.655Z,970.37
2016-06-22T08:29:34.672Z,970.34
2016-06-22T08:30:34.681Z,970.36
2016-06-22T08:31:34.687Z,970.39
2016-06-22T08:32:34.696Z,970.36
2016-06-22T08:33:34.711Z,970.37
2016-06-22T08:34:34.716Z,970.34
2016-06-22T08:35:34.727Z,970.36
2016-06-22T08:36:34.738Z,970.35
2016-06-22T08:37:34.755Z,970.37
2016-06-22T08:38:34.763Z,970.39
2016-06-22T08:39:34.769Z,970.35
2016-06-22T08:40:34.792Z,970.36
2016-06-22T08:41:34.794Z,970.36
2016-06-22T08:42:34.805Z,970.37
2016-06-22T08:43:34.816Z,970.39
2016-06-22T08:44:34.826Z,970.38
2016-06-22T08:45:34.834Z,970.4
2016-06-22T08:46:34.843Z,970.39
2016-06-22T08:47:34.849Z,970.41
2016-06-22T08:48:34.866Z,970.4
2016-06-22T08:49:34.876Z,970.39
2016-06-22T08:50:34.882Z,970.38
2016-06-22T08:51:34.889Z,970.4
2016-06-22T08:52:34.905Z,970.38
2016-06-22T08:53:34.915Z,970.38
2016-06-22T08:54:34.927Z,970.41
2016-06-22T08:55:34.931Z,970.41
2016-06-22T08:56:34.946Z,970.42
2016-06-22T08:57:34.955Z,970.39
2016-06-22T08:58:34.973Z,970.36
2016-06-22T08:59:34.975Z,970.34
2016-06-22T09:00:34.991Z,970.35
2016-06-22T09:01:35.001Z,970.35
2016-06-22T09:02:35.011Z,970.38
2016-06-22T09:03:35.020Z,970.37
2016-06-22T09:04:35.034Z,970.38
2016-06-22T09:05:35.045Z,970.37
2016-06-22T09:06:35.048Z,970.38
2016-06-22T09:07:35.062Z,970.38
2016-06-22T09:08:35.079Z,970.39
2016-06-22T09:09:35.082Z,970.42
2016-06-22T09:10:35.092Z,970.41
2016-06-22T09:11:35.103Z,970.4
2016-06-22T09:12:35.111Z,970.36
2016-06-22T09:13:35.124Z,970.39
2016-06-22T09:14:35.132Z,970.38
2016-06-22T09:15:35.142Z,970.35
2016-06-22T09:16:35.171Z,970.38
2016-06-22T09:17:35.170Z,970.36
2016-06-22T09:18:35.181Z,970.36
2016-06-22T09:19:35.192Z,970.37
2016-06-22T09:20:35.197Z,970.38
2016-06-22T09:21:35.207Z,970.37
2016-06-22T09:22:35.216Z,970.38
2016-06-22T09:23:35.222Z,970.36
2016-06-22T09:24:35.242Z,970.35
2016-06-22T09:25:35.247Z,970.36
2016-06-22T09:26:35.258Z,970.38
2016-06-22T09:27:35.270Z,970.35
2016-06-22T09:28:35.281Z,970.36
2016-06-22T09:29:35.286Z,970.38
2016-06-22T09:30:35.303Z,970.39
2016-06-22T09:31:35.306Z,970.39
2016-06-22T09:32:35.318Z,970.4
2016-06-22T09:33:35.327Z,970.38
2016-06-22T09:34:35.339Z,970.39
2016-06-22T09:35:35.351Z,970.4
2016-06-22T09:36:35.362Z,970.41
2016-06-22T09:37:35.367Z,970.4
2016-06-22T09:38:35.378Z,970.39
2016-06-22T09:39:35.387Z,970.41
2016-06-22T09:40:35.402Z,970.37
2016-06-22T09:41:35.409Z,970.42
2016-06-22T09:42:35.421Z,970.39
2016-06-22T09:43:35.433Z,970.38
2016-06-22T09:44:35.446Z,970.38
2016-06-22T09:45:35.448Z,970.37
2016-06-22T09:46:35.463Z,970.37
2016-06-22T09:47:35.478Z,970.36
2016-06-22T09:48:35.483Z,970.37
2016-06-22T09:49:35.503Z,970.37
2016-06-22T09:50:35.508Z,970.36
2016-06-22T09:51:35.506Z,970.31
2016-06-22T09:52:35.529Z,970.35
2016-06-22T09:53:35.554Z,970.31
2016-06-22T09:54:35.544Z,970.33
2016-06-22T09:55:35.571Z,970.29
2016-06-22T09:56:35.558Z,970.31
2016-06-22T09:57:35.573Z,970.28
2016-06-22T09:58:35.583Z,970.32
2016-06-22T09:59:35.587Z,970.29
2016-06-22T10:00:35.604Z,970.27
2016-06-22T10:01:35.608Z,970.29
2016-06-22T10:02:35.620Z,970.29
2016-06-22T10:03:35.634Z,970.26
2016-06-22T10:04:35.639Z,970.25
2016-06-22T10:05:35.651Z,970.26
2016-06-22T10:06:35.667Z,970.21
2016-06-22T10:07:35.676Z,970.3
2016-06-22T10:08:35.684Z,970.26
2016-06-22T10:09:35.696Z,970.26
2016-06-22T10:10:35.705Z,970.23
2016-06-22T10:11:35.815Z,970.25
2016-06-22T10:12:35.732Z,970.24
2016-06-22T10:13:35.735Z,970.21
2016-06-22T10:14:35.752Z,970.23
2016-06-22T10:15:35.754Z,970.22
2016-06-22T10:16:35.763Z,970.22
2016-06-22T10:17:35.775Z,970.22
2016-06-22T10:18:35.789Z,970.2
2016-06-22T10:19:35.812Z,970.22
2016-06-22T10:20:35.814Z,970.19
2016-06-22T10:21:35.820Z,970.19
2016-06-22T10:22:35.830Z,970.19
2016-06-22T10:23:35.838Z,970.22
2016-06-22T10:24:35.846Z,970.27
2016-06-22T10:25:35.864Z,970.26
2016-06-22T10:26:35.867Z,970.24
2016-06-22T10:27:35.882Z,970.25
2016-06-22T10:28:35.884Z,970.19
2016-06-22T10:29:35.906Z,970.22
2016-06-22T10:30:35.908Z,970.22
2016-06-22T10:31:35.915Z,970.19
2016-06-22T10:32:35.934Z,970.21
2016-06-22T10:33:35.945Z,970.2
2016-06-22T10:34:35.958Z,970.25
2016-06-22T10:35:35.955Z,970.21
2016-06-22T10:36:35.969Z,970.2
2016-06-22T10:37:35.976Z,970.2
2016-06-22T10:38:35.987Z,970.17
2016-06-22T10:39:36.002Z,970.22
2016-06-22T10:40:36.011Z,970.2
2016-06-22T10:41:36.026Z,970.19
2016-06-22T10:42:36.031Z,970.21
2016-06-22T10:43:36.042Z,970.21
2016-06-22T10:44:36.053Z,970.21
2016-06-22T10:45:36.065Z,970.21
2016-06-22T10:46:36.076Z,970.21
2016-06-22T10:47:36.090Z,970.25
2016-06-22T10:48:36.103Z,970.22
2016-06-22T10:49:36.115Z,970.22
2016-06-22T10:50:36.117Z,970.23
2016-06-22T10:51:36.126Z,970.24
2016-06-22T10:52:36.139Z,970.19
2016-06-22T10:53:36.149Z,970.17
2016-06-22T10:54:36.154Z,970.25
2016-06-22T10:55:36.163Z,970.21
2016-06-22T10:56:36.178Z,970.21
2016-06-22T10:57:36.195Z,970.21
2016-06-22T10:58:36.207Z,970.21
2016-06-22T10:59:36.211Z,970.18
2016-06-22T11:00:36.218Z,970.15
2016-06-22T11:01:36.228Z,970.2
2016-06-22T11:02:36.246Z,970.17
2016-06-22T11:03:36.253Z,970.18
2016-06-22T11:04:36.258Z,970.16
2016-06-22T11:05:36.271Z,970.19
2016-06-22T11:06:36.318Z,970.15
2016-06-22T11:07:36.296Z,970.18
2016-06-22T11:08:36.310Z,970.16
2016-06-22T11:09:36.317Z,970.17
2016-06-22T11:10:36.332Z,970.14
2016-06-22T11:11:36.394Z,970.14
2016-06-22T11:12:36.343Z,970.1
2016-06-22T11:13:36.356Z,970.13
2016-06-22T11:14:36.366Z,970.12
2016-06-22T11:15:36.374Z,970.06
2016-06-22T11:17:36.759Z,970.1
2016-06-22T11:18:36.408Z,970.1
2016-06-22T11:19:36.418Z,970.11
2016-06-22T11:20:36.430Z,970.09
2016-06-22T11:21:36.440Z,970.09
2016-06-22T11:22:36.453Z,970.07
2016-06-22T11:23:36.461Z,970.09
2016-06-22T11:24:36.472Z,970.06
2016-06-22T11:25:36.478Z,970.08
2016-06-22T11:26:36.490Z,970.1
2016-06-22T11:27:36.508Z,970.08
2016-06-22T11:28:36.515Z,970.08
2016-06-22T11:29:36.527Z,970.1
2016-06-22T11:30:36.535Z,970.1
2016-06-22T11:31:36.540Z,970.11
2016-06-22T11:32:36.566Z,970.09
2016-06-22T11:33:36.563Z,970.1
2016-06-22T11:34:36.576Z,970.09
2016-06-22T11:35:36.588Z,970.12
2016-06-22T11:36:36.598Z,970.1
2016-06-22T11:37:36.602Z,970.11
2016-06-22T11:38:36.620Z,970.13
2016-06-22T11:39:36.628Z,970.08
2016-06-22T11:40:36.635Z,970.07
2016-06-22T11:41:36.650Z,970.05
2016-06-22T11:42:36.658Z,970.11
2016-06-22T11:43:36.674Z,970.09
2016-06-22T11:44:36.679Z,970.05
2016-06-22T11:45:36.691Z,970.06
2016-06-22T11:46:36.704Z,970.08
2016-06-22T11:47:36.712Z,970.04
2016-06-22T11:48:36.723Z,970.06
2016-06-22T11:49:36.735Z,970.06
2016-06-22T11:50:36.738Z,970.03
2016-06-22T11:51:36.757Z,970.07
2016-06-22T11:52:36.766Z,970.01
2016-06-22T11:53:36.777Z,970.06
2016-06-22T11:54:36.788Z,970.04
2016-06-22T11:55:36.799Z,970.03
2016-06-22T11:56:36.806Z,970.05
2016-06-22T11:57:36.817Z,970.09
2016-06-22T11:58:36.825Z,970.05
2016-06-22T11:59:36.840Z,970.02
2016-06-22T12:00:36.848Z,970.04
2016-06-22T12:01:36.861Z,970.02
2016-06-22T12:02:36.866Z,970.03
2016-06-22T12:03:36.882Z,970.01
2016-06-22T12:04:36.888Z,970
2016-06-22T12:05:36.902Z,969.99
2016-06-22T12:06:36.915Z,969.97
2016-06-22T12:07:36.922Z,969.97
2016-06-22T12:08:36.931Z,969.98
2016-06-22T12:09:36.939Z,969.93
2016-06-22T12:10:36.954Z,969.92
2016-06-22T12:11:36.963Z,969.96
2016-06-22T12:12:36.974Z,969.94
2016-06-22T12:13:36.993Z,969.89
2016-06-22T12:14:37.002Z,969.93
2016-06-22T12:15:37.010Z,969.9
2016-06-22T12:16:37.017Z,969.88
2016-06-22T12:17:37.027Z,969.9
2016-06-22T12:18:37.043Z,969.89
2016-06-22T12:19:37.055Z,969.88
2016-06-22T12:20:37.059Z,969.91
2016-06-22T12:21:37.067Z,969.91
2016-06-22T12:22:37.082Z,969.87
2016-06-22T12:23:37.091Z,969.88
2016-06-22T12:24:37.107Z,969.89
2016-06-22T12:25:37.114Z,969.91
2016-06-22T12:26:37.122Z,969.89
2016-06-22T12:27:37.132Z,969.91
2016-06-22T12:28:37.150Z,969.9
2016-06-22T12:29:37.156Z,969.87
2016-06-22T12:30:37.173Z,969.86
2016-06-22T12:31:37.174Z,969.86